createdAt,value
2022-10-15T00:01:25.683Z,32.90
2022-10-15T00:03:52.815Z,33.00
2022-10-15T00:06:21.504Z,34.15
2022-10-15T00:08:48.953Z,32.80
2022-10-15T00:11:22.613Z,33.05
2022-10-15T00:13:52.467Z,33.50
2022-10-15T00:16:24.195Z,32.70
2022-10-15T00:18:55.045Z,32.05
2022-10-15T00:21:22.977Z,34.15
2022-10-15T00:23:50.346Z,33.00
2022-10-15T00:26:27.423Z,33.50
2022-10-15T00:28:57.640Z,32.38
2022-10-15T00:31:28.200Z,31.85
2022-10-15T00:34:04.321Z,31.45
2022-10-15T00:36:35.465Z,32.13
2022-10-15T00:39:06.327Z,31.23
2022-10-15T00:41:40.816Z,33.40
2022-10-15T00:44:32.187Z,34.17
2022-10-15T00:47:20.224Z,33.00
2022-10-15T00:50:25.125Z,31.27
2022-10-15T00:53:08.047Z,32.95
2022-10-15T00:55:42.897Z,33.67
2022-10-15T00:58:17.118Z,32.80
2022-10-15T01:00:44.534Z,32.63
2022-10-15T01:03:12.965Z,31.00
2022-10-15T01:05:41.510Z,33.42
2022-10-15T01:08:08.558Z,32.75
2022-10-15T01:11:09.796Z,35.05
2022-10-15T01:14:08.748Z,32.72
2022-10-15T01:17:04.428Z,33.53
2022-10-15T01:20:32.185Z,34.15
2022-10-15T01:23:30.770Z,33.05
2022-10-15T01:26:37.600Z,33.45
2022-10-15T01:29:51.703Z,31.33
2022-10-15T01:32:28.379Z,32.22
2022-10-15T01:35:18.323Z,31.52
2022-10-15T01:38:16.099Z,31.98
2022-10-15T01:41:02.137Z,31.42
2022-10-15T01:43:48.793Z,31.83
2022-10-15T01:46:24.159Z,32.55
2022-10-15T01:48:58.176Z,31.35
2022-10-15T01:51:27.205Z,29.88
2022-10-15T01:53:54.990Z,34.03
2022-10-15T01:56:24.584Z,32.00
2022-10-15T01:58:54.907Z,33.05
2022-10-15T02:01:22.645Z,32.15
2022-10-15T02:03:52.570Z,32.45
2022-10-15T02:06:41.048Z,33.35
2022-10-15T02:09:46.052Z,33.53
2022-10-15T02:12:42.250Z,32.10
2022-10-15T02:15:31.885Z,32.08
2022-10-15T02:18:19.282Z,33.65
2022-10-15T02:21:42.357Z,31.42
2022-10-15T02:24:37.262Z,31.63
2022-10-15T02:27:05.006Z,32.53
2022-10-15T02:29:33.967Z,32.30
2022-10-15T02:32:03.125Z,32.65
2022-10-15T02:34:34.974Z,34.03
2022-10-15T02:37:05.301Z,30.15
2022-10-15T02:39:34.198Z,33.17
2022-10-15T02:42:02.359Z,32.13
2022-10-15T02:44:30.031Z,32.90
2022-10-15T02:47:00.486Z,30.38
2022-10-15T02:49:28.108Z,30.90
2022-10-15T02:51:55.808Z,32.22
2022-10-15T02:54:22.991Z,31.58
2022-10-15T02:56:50.066Z,30.25
2022-10-15T02:59:19.076Z,30.27
2022-10-15T03:01:46.622Z,31.33
2022-10-15T03:04:13.697Z,29.25
2022-10-15T03:06:40.921Z,31.73
2022-10-15T03:09:08.186Z,31.20
2022-10-15T03:11:35.246Z,31.17
2022-10-15T03:14:02.292Z,30.23
2022-10-15T03:16:29.330Z,30.38
2022-10-15T03:18:56.551Z,30.83
2022-10-15T03:21:23.620Z,30.58
2022-10-15T03:23:50.599Z,31.13
2022-10-15T03:26:17.739Z,30.17
2022-10-15T03:28:47.430Z,30.15
2022-10-15T03:31:14.809Z,30.23
2022-10-15T03:33:41.787Z,31.17
2022-10-15T03:36:09.527Z,31.05
2022-10-15T03:38:36.601Z,30.55
2022-10-15T03:41:03.761Z,32.40
2022-10-15T03:43:31.178Z,32.00
2022-10-15T03:46:05.459Z,30.23
2022-10-15T03:48:36.326Z,31.45
2022-10-15T03:51:03.912Z,32.03
2022-10-15T03:53:33.714Z,31.73
2022-10-15T03:56:04.973Z,30.67
2022-10-15T03:58:32.219Z,31.73
2022-10-15T04:00:59.329Z,31.25
2022-10-15T04:03:26.383Z,30.45
2022-10-15T04:05:55.349Z,32.58
2022-10-15T04:08:23.808Z,31.92
2022-10-15T04:10:54.499Z,30.73
2022-10-15T04:13:21.460Z,32.00
2022-10-15T04:15:48.591Z,31.02
2022-10-15T04:18:15.667Z,30.13
2022-10-15T04:20:43.101Z,31.88
2022-10-15T04:23:11.174Z,30.90
2022-10-15T04:25:38.299Z,30.83
2022-10-15T04:28:05.734Z,31.45
2022-10-15T04:30:32.855Z,31.23
2022-10-15T04:32:59.896Z,32.75
2022-10-15T04:35:27.289Z,31.65
2022-10-15T04:37:54.342Z,31.80
2022-10-15T04:40:21.407Z,31.20
2022-10-15T04:42:48.461Z,29.88
2022-10-15T04:45:15.723Z,32.47
2022-10-15T04:47:43.154Z,32.13
2022-10-15T04:50:10.851Z,31.77
2022-10-15T04:52:37.923Z,32.63
2022-10-15T04:55:05.739Z,33.00
2022-10-15T04:57:32.752Z,32.15
2022-10-15T04:59:59.728Z,31.63
2022-10-15T05:02:27.089Z,32.20
2022-10-15T05:04:54.297Z,34.28
2022-10-15T05:07:21.636Z,37.60
2022-10-15T05:09:48.920Z,36.72
2022-10-15T05:12:16.091Z,33.58
2022-10-15T05:14:43.145Z,35.03
2022-10-15T05:17:10.164Z,34.22
2022-10-15T05:19:37.138Z,32.53
2022-10-15T05:22:04.109Z,32.65
2022-10-15T05:24:31.297Z,30.80
2022-10-15T05:27:02.944Z,32.85
2022-10-15T05:29:30.406Z,32.15
2022-10-15T05:31:59.512Z,33.83
2022-10-15T05:34:30.420Z,31.58
2022-10-15T05:36:57.905Z,31.45
2022-10-15T05:39:25.238Z,31.40
2022-10-15T05:41:55.054Z,32.85
2022-10-15T05:44:24.929Z,32.47
2022-10-15T05:46:54.286Z,32.10
2022-10-15T05:49:24.747Z,32.05
2022-10-15T05:51:52.253Z,31.92
2022-10-15T05:54:19.400Z,32.67
2022-10-15T05:56:46.396Z,33.90
2022-10-15T05:59:15.914Z,30.95
2022-10-15T06:01:43.071Z,31.75
2022-10-15T06:04:10.159Z,33.47
2022-10-15T06:06:39.989Z,31.67
2022-10-15T06:09:09.108Z,29.25
2022-10-15T06:11:36.717Z,33.63
2022-10-15T06:14:03.729Z,30.50
2022-10-15T06:16:30.857Z,28.50
2022-10-15T06:18:57.994Z,27.98
2022-10-15T06:21:25.263Z,29.10
2022-10-15T06:23:53.528Z,29.92
2022-10-15T06:26:23.269Z,30.58
2022-10-15T06:28:50.433Z,28.10
2022-10-15T06:31:17.618Z,31.13
2022-10-15T06:33:44.855Z,29.80
2022-10-15T06:36:13.926Z,28.08
2022-10-15T06:38:44.130Z,27.65
2022-10-15T06:41:11.617Z,27.98
2022-10-15T06:43:38.688Z,27.17
2022-10-15T06:46:06.816Z,26.27
2022-10-15T06:48:36.356Z,26.08
2022-10-15T06:51:04.636Z,25.25
2022-10-15T06:53:32.192Z,27.02
2022-10-15T06:56:01.850Z,25.30
2022-10-15T06:58:29.173Z,24.95
2022-10-15T07:01:05.099Z,28.20
2022-10-15T07:03:32.616Z,26.23
2022-10-15T07:06:04.679Z,27.45
2022-10-15T07:08:32.384Z,26.20
2022-10-15T07:11:03.434Z,25.70
2022-10-15T07:13:30.852Z,26.73
2022-10-15T07:15:58.004Z,26.35
2022-10-15T07:18:25.048Z,27.15
2022-10-15T07:20:52.192Z,28.20
2022-10-15T07:23:21.881Z,25.48
2022-10-15T07:28:18.709Z,27.13
2022-10-15T07:30:45.849Z,26.00
2022-10-15T07:33:13.089Z,25.00
2022-10-15T07:35:40.308Z,25.65
2022-10-15T07:38:07.404Z,26.77
2022-10-15T07:40:34.374Z,26.65
2022-10-15T07:43:01.912Z,29.50
2022-10-15T07:45:28.999Z,28.15
2022-10-15T07:47:56.148Z,27.00
2022-10-15T07:50:23.213Z,26.10
2022-10-15T07:52:50.566Z,26.20
2022-10-15T07:55:17.777Z,26.55
2022-10-15T07:57:44.977Z,28.35
2022-10-15T08:00:12.958Z,26.52
2022-10-15T08:02:40.738Z,25.27
2022-10-15T08:05:08.394Z,26.77
2022-10-15T08:07:35.866Z,28.17
2022-10-15T08:10:02.892Z,25.52
2022-10-15T08:12:30.011Z,24.98
2022-10-15T08:14:59.377Z,24.73
2022-10-15T08:17:26.430Z,25.48
2022-10-15T08:19:53.459Z,26.90
2022-10-15T08:22:20.535Z,24.98
2022-10-15T08:24:47.809Z,25.13
2022-10-15T08:27:14.913Z,28.83
2022-10-15T08:29:41.926Z,25.60
2022-10-15T08:32:12.141Z,23.67
2022-10-15T08:34:41.617Z,23.70
2022-10-15T08:37:08.952Z,23.00
2022-10-15T08:39:39.132Z,22.75
2022-10-15T08:42:27.989Z,23.52
2022-10-15T08:45:02.932Z,23.40
2022-10-15T08:47:48.697Z,22.88
2022-10-15T08:51:13.749Z,22.23
2022-10-15T08:53:55.252Z,22.75
2022-10-15T08:56:38.141Z,21.93
2022-10-15T08:59:28.772Z,22.15
2022-10-15T09:02:10.693Z,21.98
2022-10-15T09:05:06.605Z,21.83
2022-10-15T09:07:43.531Z,21.20
2022-10-15T09:10:38.698Z,21.35
2022-10-15T09:13:18.444Z,21.05
2022-10-15T09:16:16.571Z,21.63
2022-10-15T09:18:54.852Z,21.02
2022-10-15T09:21:26.079Z,22.52
2022-10-15T09:23:58.855Z,21.85
2022-10-15T09:26:29.932Z,22.98
2022-10-15T09:29:23.950Z,21.55
2022-10-15T09:32:20.992Z,21.77
2022-10-15T09:35:17.237Z,21.23
2022-10-15T09:38:28.680Z,19.73
2022-10-15T09:41:04.601Z,22.38
2022-10-15T09:43:37.494Z,20.73
2022-10-15T09:48:37.725Z,20.42
2022-10-15T09:51:37.416Z,20.98
2022-10-15T09:54:35.740Z,21.30
2022-10-15T09:57:03.589Z,20.90
2022-10-15T10:02:19.628Z,20.67
2022-10-15T10:04:46.770Z,21.25
2022-10-15T10:07:38.092Z,22.08
2022-10-15T10:10:28.640Z,22.65
2022-10-15T10:13:01.287Z,21.17
2022-10-15T10:15:41.456Z,21.13
2022-10-15T10:18:26.135Z,21.77
2022-10-15T10:21:02.412Z,21.67
2022-10-15T10:23:37.655Z,21.08
2022-10-15T10:26:11.422Z,20.23
2022-10-15T10:28:49.528Z,21.45
2022-10-15T10:31:17.470Z,22.05
2022-10-15T10:33:52.351Z,22.85
2022-10-15T10:36:30.933Z,22.90
2022-10-15T10:39:15.637Z,23.48
2022-10-15T10:42:00.461Z,22.33
2022-10-15T10:47:21.642Z,24.27
2022-10-15T10:49:52.844Z,22.35
2022-10-15T10:52:36.187Z,21.60
2022-10-15T10:55:07.989Z,23.75
2022-10-15T10:58:00.147Z,22.65
2022-10-15T11:00:49.168Z,22.90
2022-10-15T11:03:36.982Z,22.48
2022-10-15T11:06:51.277Z,22.15
2022-10-15T11:09:35.751Z,22.75
2022-10-15T11:13:05.947Z,22.23
2022-10-15T11:15:38.660Z,21.08
2022-10-15T11:18:33.069Z,21.95
2022-10-15T11:21:36.851Z,20.70
2022-10-15T11:25:17.598Z,20.73
2022-10-15T11:28:46.208Z,19.92
2022-10-15T11:31:49.094Z,20.88
2022-10-15T11:34:56.367Z,20.40
2022-10-15T11:37:50.084Z,20.98
2022-10-15T11:40:34.728Z,20.33
2022-10-15T11:43:42.604Z,18.42
2022-10-15T11:46:32.737Z,19.27
2022-10-15T11:49:25.838Z,18.90
2022-10-15T11:52:36.602Z,18.92
2022-10-15T11:55:51.268Z,18.13
2022-10-15T11:58:39.812Z,19.38
2022-10-15T12:01:24.168Z,20.77
2022-10-15T12:04:03.920Z,20.70
2022-10-15T12:06:39.800Z,20.25
2022-10-15T12:09:08.221Z,21.65
2022-10-15T12:11:55.266Z,20.42
2022-10-15T12:14:50.866Z,20.38
2022-10-15T12:17:49.020Z,20.85
2022-10-15T12:20:20.691Z,19.25
2022-10-15T12:22:47.676Z,20.40
2022-10-15T12:25:36.515Z,22.02
2022-10-15T12:28:20.588Z,19.25
2022-10-15T12:30:57.971Z,20.60
2022-10-15T12:33:30.226Z,18.83
2022-10-15T12:36:22.128Z,18.25
2022-10-15T12:39:47.696Z,18.40
2022-10-15T12:42:27.652Z,17.35
2022-10-15T12:44:57.665Z,18.45
2022-10-15T12:48:06.044Z,17.17
2022-10-15T12:50:35.789Z,18.23
2022-10-15T12:53:28.735Z,18.67
2022-10-15T12:56:13.929Z,19.63
2022-10-15T12:58:49.468Z,19.35
2022-10-15T13:01:16.407Z,17.80
2022-10-15T13:03:49.648Z,18.20
2022-10-15T13:06:36.765Z,18.77
2022-10-15T13:09:09.961Z,19.42
2022-10-15T13:14:36.994Z,17.52
2022-10-15T13:17:15.292Z,17.80
2022-10-15T13:19:58.398Z,17.70
2022-10-15T13:22:32.098Z,17.20
2022-10-15T13:24:59.302Z,16.90
2022-10-15T13:27:37.774Z,18.95
2022-10-15T13:30:06.738Z,18.33
2022-10-15T13:32:47.176Z,18.75
2022-10-15T13:35:23.980Z,16.77
2022-10-15T13:37:51.334Z,17.35
2022-10-15T13:40:28.226Z,18.55
2022-10-15T13:43:24.869Z,19.08
2022-10-15T13:45:55.836Z,18.73
2022-10-15T13:48:26.582Z,18.55
2022-10-15T13:51:02.837Z,18.23
2022-10-15T13:53:41.583Z,19.92
2022-10-15T13:56:32.438Z,17.83
2022-10-15T13:59:02.298Z,18.67
2022-10-15T14:01:33.149Z,18.23
2022-10-15T14:04:03.385Z,18.20
2022-10-15T14:06:39.491Z,18.52
2022-10-15T14:09:25.051Z,18.42
2022-10-15T14:12:00.653Z,18.33
2022-10-15T14:14:44.091Z,19.20
2022-10-15T14:17:26.925Z,19.42
2022-10-15T14:20:25.323Z,19.90
2022-10-15T14:22:49.756Z,20.33
2022-10-15T14:25:25.347Z,20.00
2022-10-15T14:27:53.061Z,19.67
2022-10-15T14:30:39.545Z,20.33
2022-10-15T14:33:38.543Z,18.15
2022-10-15T14:36:14.557Z,19.63
2022-10-15T14:38:42.403Z,20.42
2022-10-15T14:41:26.075Z,21.58
2022-10-15T14:44:18.374Z,22.13
2022-10-15T14:46:51.947Z,21.88
2022-10-15T14:49:34.636Z,21.52
2022-10-15T14:52:11.755Z,23.27
2022-10-15T14:54:42.858Z,23.63
2022-10-15T14:57:24.537Z,25.73
2022-10-15T14:59:56.210Z,25.77
2022-10-15T15:02:27.288Z,26.88
2022-10-15T15:05:12.987Z,25.88
2022-10-15T15:07:41.027Z,24.63
2022-10-15T15:10:10.816Z,24.15
2022-10-15T15:12:39.817Z,25.00
2022-10-15T15:15:18.650Z,26.63
2022-10-15T15:17:45.741Z,27.52
2022-10-15T15:20:17.128Z,24.73
2022-10-15T15:22:44.273Z,25.77
2022-10-15T15:25:28.937Z,25.45
2022-10-15T15:27:56.819Z,27.50
2022-10-15T15:30:27.329Z,27.85
2022-10-15T15:32:54.981Z,26.42
2022-10-15T15:35:36.854Z,23.42
2022-10-15T15:38:08.775Z,22.50
2022-10-15T15:40:36.629Z,22.63
2022-10-15T15:43:04.690Z,22.45
2022-10-15T15:45:31.838Z,22.65
2022-10-15T15:48:02.151Z,20.33
2022-10-15T15:50:29.619Z,21.25
2022-10-15T15:52:56.770Z,20.70
2022-10-15T15:55:24.840Z,20.45
2022-10-15T15:57:51.965Z,20.90
2022-10-15T16:00:19.270Z,20.85
2022-10-15T16:02:46.870Z,19.83
2022-10-15T16:05:17.038Z,21.13
2022-10-15T16:07:45.135Z,21.02
2022-10-15T16:10:12.681Z,22.25
2022-10-15T16:12:40.299Z,23.00
2022-10-15T16:15:13.326Z,21.35
2022-10-15T16:17:42.150Z,22.65
2022-10-15T16:20:10.478Z,20.67
2022-10-15T16:22:37.444Z,19.92
2022-10-15T16:25:05.292Z,18.25
2022-10-15T16:27:34.670Z,18.60
2022-10-15T16:30:03.180Z,16.77
2022-10-15T16:32:30.377Z,16.73
2022-10-15T16:34:57.656Z,19.05
2022-10-15T16:37:25.283Z,17.63
2022-10-15T16:39:53.709Z,19.40
2022-10-15T16:42:20.782Z,17.42
2022-10-15T16:44:47.884Z,18.65
2022-10-15T16:47:14.992Z,16.77
2022-10-15T16:49:42.994Z,16.15
2022-10-15T16:52:10.302Z,15.25
2022-10-15T16:54:37.470Z,15.52
2022-10-15T16:57:05.136Z,15.23
2022-10-15T16:59:32.648Z,14.60
2022-10-15T17:02:01.335Z,14.68
2022-10-15T17:04:28.645Z,13.85
2022-10-15T17:06:55.700Z,14.15
2022-10-15T17:09:23.848Z,14.70
2022-10-15T17:11:51.414Z,15.07
2022-10-15T17:14:19.304Z,14.73
2022-10-15T17:16:50.618Z,15.20
2022-10-15T17:19:21.688Z,15.17
2022-10-15T17:21:49.782Z,17.55
2022-10-15T17:24:19.255Z,14.95
2022-10-15T17:26:47.532Z,15.93
2022-10-15T17:29:20.737Z,16.42
2022-10-15T17:31:49.720Z,16.95
2022-10-15T17:34:17.757Z,15.60
2022-10-15T17:36:48.590Z,17.52
2022-10-15T17:39:18.898Z,17.95
2022-10-15T17:41:46.469Z,17.05
2022-10-15T17:44:14.233Z,17.33
2022-10-15T17:46:42.120Z,16.75
2022-10-15T17:49:11.073Z,18.02
2022-10-15T17:51:38.413Z,17.55
2022-10-15T17:54:05.539Z,17.75
2022-10-15T17:56:36.805Z,18.85
2022-10-15T17:59:07.461Z,19.17
2022-10-15T18:01:57.180Z,19.90
2022-10-15T18:04:25.279Z,18.60
2022-10-15T18:06:52.562Z,18.77
2022-10-15T18:09:20.371Z,21.63
2022-10-15T18:11:49.098Z,19.83
2022-10-15T18:14:16.379Z,18.60
2022-10-15T18:16:51.609Z,17.48
2022-10-15T18:19:18.812Z,19.55
2022-10-15T18:21:48.702Z,18.02
2022-10-15T18:24:21.652Z,16.73
2022-10-15T18:26:50.878Z,16.30
2022-10-15T18:29:22.529Z,17.52
2022-10-15T18:31:54.829Z,17.55
2022-10-15T18:34:24.761Z,18.10
2022-10-15T18:36:54.584Z,18.08
2022-10-15T18:39:21.984Z,18.98
2022-10-15T18:41:48.972Z,18.58
2022-10-15T18:47:07.272Z,18.55
2022-10-15T18:49:34.252Z,19.23
2022-10-15T18:52:10.601Z,18.98
2022-10-15T18:54:48.398Z,17.38
2022-10-15T18:57:15.533Z,19.17
2022-10-15T18:59:42.657Z,19.30
2022-10-15T19:02:10.171Z,19.30
2022-10-15T19:04:37.256Z,19.55
2022-10-15T19:07:07.055Z,20.02
2022-10-15T19:09:34.746Z,20.98
2022-10-15T19:12:01.953Z,18.27
2022-10-15T19:14:29.245Z,19.58
2022-10-15T19:16:58.027Z,18.88
2022-10-15T19:19:26.249Z,18.33
2022-10-15T19:21:53.822Z,17.58
2022-10-15T19:24:22.244Z,17.27
2022-10-15T19:26:53.048Z,15.70
2022-10-15T19:29:21.660Z,16.10
2022-10-15T19:31:49.934Z,15.50
2022-10-15T19:34:17.044Z,16.20
2022-10-15T19:36:49.211Z,14.90
2022-10-15T19:41:49.178Z,15.77
2022-10-15T19:44:19.443Z,15.73
2022-10-15T19:46:47.335Z,15.63
2022-10-15T19:49:16.183Z,15.00
2022-10-15T19:51:43.767Z,14.57
2022-10-15T19:54:10.968Z,14.95
2022-10-15T19:56:38.131Z,14.48
2022-10-15T19:59:06.859Z,15.07
2022-10-15T20:01:34.496Z,14.30
2022-10-15T20:04:06.199Z,15.40
2022-10-15T20:06:35.991Z,15.55
2022-10-15T20:09:04.246Z,14.50
2022-10-15T20:11:31.587Z,15.27
2022-10-15T20:14:00.376Z,16.05
2022-10-15T20:16:32.681Z,14.82
2022-10-15T20:19:04.719Z,14.45
2022-10-15T20:21:32.322Z,15.27
2022-10-15T20:23:59.954Z,16.25
2022-10-15T20:26:27.427Z,17.58
2022-10-15T20:28:54.793Z,18.50
2022-10-15T20:31:25.058Z,18.42
2022-10-15T20:33:52.029Z,19.25
2022-10-15T20:36:23.699Z,19.02
2022-10-15T20:38:52.106Z,19.63
2022-10-15T20:41:25.464Z,20.23
2022-10-15T20:43:56.871Z,19.95
2022-10-15T20:46:45.765Z,20.60
2022-10-15T20:49:20.950Z,21.40
2022-10-15T20:51:49.568Z,20.83
2022-10-15T20:54:20.396Z,22.65
2022-10-15T20:56:48.892Z,21.58
2022-10-15T20:59:16.282Z,19.00
2022-10-15T21:01:43.293Z,20.77
2022-10-15T21:04:13.515Z,19.80
2022-10-15T21:06:41.023Z,20.55
2022-10-15T21:09:11.207Z,20.50
2022-10-15T21:11:49.551Z,19.42
2022-10-15T21:14:16.761Z,20.63
2022-10-15T21:16:43.873Z,20.98
2022-10-15T21:19:11.033Z,20.58
2022-10-15T21:21:38.592Z,19.50
2022-10-15T21:24:06.266Z,19.70
2022-10-15T21:26:37.035Z,21.63
2022-10-15T21:29:05.099Z,20.85
2022-10-15T21:31:32.530Z,20.63
2022-10-15T21:33:59.538Z,19.92
2022-10-15T21:36:35.664Z,21.40
2022-10-15T21:39:09.996Z,21.10
2022-10-15T21:41:39.672Z,20.45
2022-10-15T21:44:11.578Z,21.80
2022-10-15T21:46:41.630Z,21.35
2022-10-15T21:49:09.622Z,22.60
2022-10-15T21:51:38.204Z,20.85
2022-10-15T21:54:08.122Z,21.25
2022-10-15T21:56:48.418Z,20.35
2022-10-15T21:59:18.410Z,20.17
2022-10-15T22:01:45.779Z,20.23
2022-10-15T22:04:13.014Z,20.17
2022-10-15T22:06:43.729Z,19.92
2022-10-15T22:09:17.349Z,17.95
2022-10-15T22:11:44.556Z,18.85
2022-10-15T22:14:13.982Z,18.92
2022-10-15T22:16:44.106Z,19.10
2022-10-15T22:19:15.695Z,19.33
2022-10-15T22:21:43.638Z,19.08
2022-10-15T22:24:17.864Z,19.42
2022-10-15T22:26:52.762Z,19.90
2022-10-15T22:29:34.505Z,18.77
2022-10-15T22:32:04.975Z,18.05
2022-10-15T22:34:32.470Z,18.48
2022-10-15T22:36:59.786Z,19.63
2022-10-15T22:39:26.902Z,19.17
2022-10-15T22:41:53.943Z,18.83
2022-10-15T22:44:21.845Z,19.30
2022-10-15T22:46:49.977Z,18.45
2022-10-15T22:49:22.318Z,19.88
2022-10-15T22:51:50.750Z,19.48
2022-10-15T22:54:20.527Z,20.38
2022-10-15T22:56:49.715Z,19.17
2022-10-15T22:59:17.934Z,20.65
2022-10-15T23:01:48.366Z,19.25
2022-10-15T23:04:16.520Z,19.55
2022-10-15T23:06:43.905Z,19.50
2022-10-15T23:09:17.724Z,20.63
2022-10-15T23:11:47.908Z,21.08
2022-10-15T23:14:16.740Z,21.48
2022-10-15T23:16:47.500Z,22.02
2022-10-15T23:19:19.666Z,20.80
2022-10-15T23:24:27.499Z,22.90
2022-10-15T23:26:55.332Z,22.98
2022-10-15T23:29:25.423Z,22.83
2022-10-15T23:31:56.763Z,22.70
2022-10-15T23:34:26.668Z,22.23
2022-10-15T23:36:54.108Z,20.90
2022-10-15T23:39:25.950Z,22.67
2022-10-15T23:41:53.967Z,21.33
2022-10-15T23:44:27.676Z,22.50
2022-10-15T23:46:55.736Z,22.58
2022-10-15T23:49:22.814Z,21.67
2022-10-15T23:51:49.891Z,21.55
2022-10-15T23:54:18.547Z,23.77
2022-10-15T23:56:47.341Z,22.13
2022-10-15T23:59:14.943Z,21.98
